sensor_id;sensor_type;location;lat;lon;timestamp;temperature;humidity
43099;DHT22;28715;51.988;6.020;2023-08-12T00:00:17;23.40;99.90
43099;DHT22;28715;51.988;6.020;2023-08-12T00:02:43;23.30;99.90
43099;DHT22;28715;51.988;6.020;2023-08-12T00:05:09;23.30;99.90
43099;DHT22;28715;51.988;6.020;2023-08-12T00:07:38;23.30;99.90
43099;DHT22;28715;51.988;6.020;2023-08-12T00:10:06;23.30;99.90
43099;DHT22;28715;51.988;6.020;2023-08-12T00:12:32;23.20;99.90
43099;DHT22;28715;51.988;6.020;2023-08-12T00:14:58;23.20;99.90
43099;DHT22;28715;51.988;6.020;2023-08-12T00:17:24;23.20;99.90
43099;DHT22;28715;51.988;6.020;2023-08-12T00:19:49;23.20;99.90
43099;DHT22;28715;51.988;6.020;2023-08-12T00:22:15;23.20;99.90
43099;DHT22;28715;51.988;6.020;2023-08-12T00:24:40;23.10;99.90
43099;DHT22;28715;51.988;6.020;2023-08-12T00:27:06;23.10;99.90
43099;DHT22;28715;51.988;6.020;2023-08-12T00:29:32;23.10;99.90
43099;DHT22;28715;51.988;6.020;2023-08-12T00:31:57;23.10;99.90
43099;DHT22;28715;51.988;6.020;2023-08-12T00:34:23;23.10;99.90
43099;DHT22;28715;51.988;6.020;2023-08-12T00:36:48;23.10;99.90
43099;DHT22;28715;51.988;6.020;2023-08-12T00:39:14;23.10;99.90
43099;DHT22;28715;51.988;6.020;2023-08-12T00:41:39;23.10;99.90
43099;DHT22;28715;51.988;6.020;2023-08-12T00:44:05;23.20;99.90
43099;DHT22;28715;51.988;6.020;2023-08-12T00:46:30;23.10;99.90
43099;DHT22;28715;51.988;6.020;2023-08-12T00:48:56;23.10;99.90
43099;DHT22;28715;51.988;6.020;2023-08-12T00:51:22;23.10;99.90
43099;DHT22;28715;51.988;6.020;2023-08-12T00:53:47;23.10;99.90
43099;DHT22;28715;51.988;6.020;2023-08-12T00:56:13;23.20;99.90
43099;DHT22;28715;51.988;6.020;2023-08-12T00:58:39;23.10;99.90
43099;DHT22;28715;51.988;6.020;2023-08-12T01:01:05;23.10;99.90
43099;DHT22;28715;51.988;6.020;2023-08-12T01:03:30;23.10;99.90
43099;DHT22;28715;51.988;6.020;2023-08-12T01:05:56;23.10;99.90
43099;DHT22;28715;51.988;6.020;2023-08-12T01:08:22;23.10;99.90
43099;DHT22;28715;51.988;6.020;2023-08-12T01:10:49;23.10;99.90
43099;DHT22;28715;51.988;6.020;2023-08-12T01:13:30;23.10;99.90
43099;DHT22;28715;51.988;6.020;2023-08-12T01:15:57;23.10;99.90
43099;DHT22;28715;51.988;6.020;2023-08-12T01:18:24;23.10;99.90
43099;DHT22;28715;51.988;6.020;2023-08-12T01:20:49;23.20;99.90
43099;DHT22;28715;51.988;6.020;2023-08-12T01:23:15;23.20;99.90
43099;DHT22;28715;51.988;6.020;2023-08-12T01:25:44;23.10;99.90
43099;DHT22;28715;51.988;6.020;2023-08-12T01:28:09;23.10;99.90
43099;DHT22;28715;51.988;6.020;2023-08-12T01:30:36;23.10;99.90
43099;DHT22;28715;51.988;6.020;2023-08-12T01:33:07;23.10;99.90
43099;DHT22;28715;51.988;6.020;2023-08-12T01:35:36;23.10;99.90
43099;DHT22;28715;51.988;6.020;2023-08-12T01:38:04;23.10;99.90
43099;DHT22;28715;51.988;6.020;2023-08-12T01:40:31;23.10;99.90
43099;DHT22;28715;51.988;6.020;2023-08-12T01:42:57;23.10;99.90
43099;DHT22;28715;51.988;6.020;2023-08-12T01:45:22;23.10;99.90
43099;DHT22;28715;51.988;6.020;2023-08-12T01:47:48;23.10;99.90
43099;DHT22;28715;51.988;6.020;2023-08-12T01:50:16;23.00;99.90
43099;DHT22;28715;51.988;6.020;2023-08-12T01:52:41;23.00;99.90
43099;DHT22;28715;51.988;6.020;2023-08-12T01:55:07;23.00;99.90
43099;DHT22;28715;51.988;6.020;2023-08-12T01:57:33;23.00;99.90
43099;DHT22;28715;51.988;6.020;2023-08-12T01:59:58;23.00;99.90
43099;DHT22;28715;51.988;6.020;2023-08-12T02:02:23;23.00;99.90
43099;DHT22;28715;51.988;6.020;2023-08-12T02:04:49;23.00;99.90
43099;DHT22;28715;51.988;6.020;2023-08-12T02:07:14;23.00;99.90
43099;DHT22;28715;51.988;6.020;2023-08-12T02:09:40;23.00;99.90
43099;DHT22;28715;51.988;6.020;2023-08-12T02:12:06;23.00;99.90
43099;DHT22;28715;51.988;6.020;2023-08-12T02:14:31;22.90;99.90
43099;DHT22;28715;51.988;6.020;2023-08-12T02:16:57;22.90;99.90
43099;DHT22;28715;51.988;6.020;2023-08-12T02:19:22;22.90;99.90
43099;DHT22;28715;51.988;6.020;2023-08-12T02:21:48;22.90;99.90
43099;DHT22;28715;51.988;6.020;2023-08-12T02:24:13;22.90;99.90
43099;DHT22;28715;51.988;6.020;2023-08-12T02:26:39;22.90;99.90
43099;DHT22;28715;51.988;6.020;2023-08-12T02:29:04;22.80;99.90
43099;DHT22;28715;51.988;6.020;2023-08-12T02:31:29;22.80;99.90
43099;DHT22;28715;51.988;6.020;2023-08-12T02:33:55;22.80;99.90
43099;DHT22;28715;51.988;6.020;2023-08-12T02:36:20;22.80;99.90
43099;DHT22;28715;51.988;6.020;2023-08-12T02:38:46;22.80;99.90
43099;DHT22;28715;51.988;6.020;2023-08-12T02:41:11;22.80;99.90
43099;DHT22;28715;51.988;6.020;2023-08-12T02:43:37;22.80;99.90
43099;DHT22;28715;51.988;6.020;2023-08-12T02:46:02;22.80;99.90
43099;DHT22;28715;51.988;6.020;2023-08-12T02:48:28;22.80;99.90
43099;DHT22;28715;51.988;6.020;2023-08-12T02:50:53;22.80;99.90
43099;DHT22;28715;51.988;6.020;2023-08-12T02:53:19;22.80;99.90
43099;DHT22;28715;51.988;6.020;2023-08-12T02:55:44;22.80;99.90
43099;DHT22;28715;51.988;6.020;2023-08-12T02:58:10;22.80;99.90
43099;DHT22;28715;51.988;6.020;2023-08-12T03:00:36;22.80;99.90
43099;DHT22;28715;51.988;6.020;2023-08-12T03:03:01;22.80;99.90
43099;DHT22;28715;51.988;6.020;2023-08-12T03:05:26;22.80;99.90
43099;DHT22;28715;51.988;6.020;2023-08-12T03:07:52;22.70;99.90
43099;DHT22;28715;51.988;6.020;2023-08-12T03:10:18;22.80;99.90
43099;DHT22;28715;51.988;6.020;2023-08-12T03:12:43;22.80;99.90
43099;DHT22;28715;51.988;6.020;2023-08-12T03:15:09;22.80;99.90
43099;DHT22;28715;51.988;6.020;2023-08-12T03:17:35;22.80;99.90
43099;DHT22;28715;51.988;6.020;2023-08-12T03:20:00;22.80;99.90
43099;DHT22;28715;51.988;6.020;2023-08-12T03:22:29;22.80;99.90
43099;DHT22;28715;51.988;6.020;2023-08-12T03:24:55;22.80;99.90
43099;DHT22;28715;51.988;6.020;2023-08-12T03:27:20;22.80;99.90
43099;DHT22;28715;51.988;6.020;2023-08-12T03:29:45;22.80;99.90
43099;DHT22;28715;51.988;6.020;2023-08-12T03:32:11;22.80;99.90
43099;DHT22;28715;51.988;6.020;2023-08-12T03:34:37;22.80;99.90
43099;DHT22;28715;51.988;6.020;2023-08-12T03:37:03;22.80;99.90
43099;DHT22;28715;51.988;6.020;2023-08-12T03:39:28;22.80;99.90
43099;DHT22;28715;51.988;6.020;2023-08-12T03:41:54;22.80;99.90
43099;DHT22;28715;51.988;6.020;2023-08-12T03:44:19;22.80;99.90
43099;DHT22;28715;51.988;6.020;2023-08-12T03:46:45;22.80;99.90
43099;DHT22;28715;51.988;6.020;2023-08-12T03:49:10;22.80;99.90
43099;DHT22;28715;51.988;6.020;2023-08-12T03:51:36;22.80;99.90
43099;DHT22;28715;51.988;6.020;2023-08-12T03:54:01;22.70;99.90
43099;DHT22;28715;51.988;6.020;2023-08-12T03:56:27;22.70;99.90
43099;DHT22;28715;51.988;6.020;2023-08-12T03:58:52;22.70;99.90
43099;DHT22;28715;51.988;6.020;2023-08-12T04:01:18;22.70;99.90
43099;DHT22;28715;51.988;6.020;2023-08-12T04:03:43;22.70;99.90
43099;DHT22;28715;51.988;6.020;2023-08-12T04:06:09;22.70;99.90
43099;DHT22;28715;51.988;6.020;2023-08-12T04:08:34;22.70;99.90
43099;DHT22;28715;51.988;6.020;2023-08-12T04:11:00;22.70;99.90
43099;DHT22;28715;51.988;6.020;2023-08-12T04:13:27;22.70;99.90
43099;DHT22;28715;51.988;6.020;2023-08-12T04:15:53;22.70;99.90
43099;DHT22;28715;51.988;6.020;2023-08-12T04:18:18;22.70;99.90
43099;DHT22;28715;51.988;6.020;2023-08-12T04:20:48;22.70;99.90
43099;DHT22;28715;51.988;6.020;2023-08-12T04:23:14;22.70;99.90
43099;DHT22;28715;51.988;6.020;2023-08-12T04:25:39;22.60;99.90
43099;DHT22;28715;51.988;6.020;2023-08-12T04:28:05;22.60;99.90
43099;DHT22;28715;51.988;6.020;2023-08-12T04:30:30;22.60;99.90
43099;DHT22;28715;51.988;6.020;2023-08-12T04:32:56;22.60;99.90
43099;DHT22;28715;51.988;6.020;2023-08-12T04:35:21;22.60;99.90
43099;DHT22;28715;51.988;6.020;2023-08-12T04:37:47;22.70;99.90
43099;DHT22;28715;51.988;6.020;2023-08-12T04:40:12;22.60;99.90
43099;DHT22;28715;51.988;6.020;2023-08-12T04:42:38;22.60;99.90
43099;DHT22;28715;51.988;6.020;2023-08-12T04:45:03;22.70;99.90
43099;DHT22;28715;51.988;6.020;2023-08-12T04:47:29;22.70;99.90
43099;DHT22;28715;51.988;6.020;2023-08-12T04:49:54;22.70;99.90
43099;DHT22;28715;51.988;6.020;2023-08-12T04:52:20;22.70;99.90
43099;DHT22;28715;51.988;6.020;2023-08-12T04:54:46;22.60;99.90
43099;DHT22;28715;51.988;6.020;2023-08-12T04:57:11;22.60;99.90
43099;DHT22;28715;51.988;6.020;2023-08-12T04:59:37;22.60;99.90
43099;DHT22;28715;51.988;6.020;2023-08-12T05:02:02;22.60;99.90
43099;DHT22;28715;51.988;6.020;2023-08-12T05:04:28;22.70;99.90
43099;DHT22;28715;51.988;6.020;2023-08-12T05:06:53;22.70;99.90
43099;DHT22;28715;51.988;6.020;2023-08-12T05:09:19;22.70;99.90
43099;DHT22;28715;51.988;6.020;2023-08-12T05:11:44;22.70;99.90
43099;DHT22;28715;51.988;6.020;2023-08-12T05:14:10;22.70;99.90
43099;DHT22;28715;51.988;6.020;2023-08-12T05:16:35;22.80;99.90
43099;DHT22;28715;51.988;6.020;2023-08-12T05:19:01;22.80;99.90
43099;DHT22;28715;51.988;6.020;2023-08-12T05:21:26;22.80;99.90
43099;DHT22;28715;51.988;6.020;2023-08-12T05:23:52;22.90;99.90
43099;DHT22;28715;51.988;6.020;2023-08-12T05:26:17;22.80;99.90
43099;DHT22;28715;51.988;6.020;2023-08-12T05:28:43;22.80;99.90
43099;DHT22;28715;51.988;6.020;2023-08-12T05:31:08;22.80;99.90
43099;DHT22;28715;51.988;6.020;2023-08-12T05:33:34;22.80;99.90
43099;DHT22;28715;51.988;6.020;2023-08-12T05:35:59;22.80;99.90
43099;DHT22;28715;51.988;6.020;2023-08-12T05:38:25;22.80;99.90
43099;DHT22;28715;51.988;6.020;2023-08-12T05:40:50;22.70;99.90
43099;DHT22;28715;51.988;6.020;2023-08-12T05:43:16;22.70;99.90
43099;DHT22;28715;51.988;6.020;2023-08-12T05:45:41;22.70;99.90
43099;DHT22;28715;51.988;6.020;2023-08-12T05:48:07;22.70;99.90
43099;DHT22;28715;51.988;6.020;2023-08-12T05:50:33;22.70;99.90
43099;DHT22;28715;51.988;6.020;2023-08-12T05:52:58;22.70;99.90
43099;DHT22;28715;51.988;6.020;2023-08-12T05:55:24;22.60;99.90
43099;DHT22;28715;51.988;6.020;2023-08-12T05:57:49;22.60;99.90
43099;DHT22;28715;51.988;6.020;2023-08-12T06:00:17;22.60;99.90
43099;DHT22;28715;51.988;6.020;2023-08-12T06:02:43;22.60;99.90
43099;DHT22;28715;51.988;6.020;2023-08-12T06:05:08;22.60;99.90
43099;DHT22;28715;51.988;6.020;2023-08-12T06:07:41;22.50;99.90
43099;DHT22;28715;51.988;6.020;2023-08-12T06:10:20;22.50;99.90
43099;DHT22;28715;51.988;6.020;2023-08-12T06:12:53;22.50;99.90
43099;DHT22;28715;51.988;6.020;2023-08-12T06:15:32;22.40;99.90
43099;DHT22;28715;51.988;6.020;2023-08-12T06:21:12;22.40;99.90
43099;DHT22;28715;51.988;6.020;2023-08-12T06:23:37;22.40;99.90
43099;DHT22;28715;51.988;6.020;2023-08-12T06:26:03;22.40;99.90
43099;DHT22;28715;51.988;6.020;2023-08-12T06:28:28;22.40;99.90
43099;DHT22;28715;51.988;6.020;2023-08-12T06:30:54;22.40;99.90
43099;DHT22;28715;51.988;6.020;2023-08-12T06:33:20;22.40;99.90
43099;DHT22;28715;51.988;6.020;2023-08-12T06:35:45;22.30;99.90
43099;DHT22;28715;51.988;6.020;2023-08-12T06:38:11;22.40;99.90
43099;DHT22;28715;51.988;6.020;2023-08-12T06:40:37;22.30;99.90
43099;DHT22;28715;51.988;6.020;2023-08-12T06:43:06;22.30;99.90
43099;DHT22;28715;51.988;6.020;2023-08-12T06:45:39;22.20;99.90
43099;DHT22;28715;51.988;6.020;2023-08-12T06:48:04;22.20;99.90
43099;DHT22;28715;51.988;6.020;2023-08-12T06:50:33;22.20;99.90
43099;DHT22;28715;51.988;6.020;2023-08-12T06:52:58;22.20;99.90
43099;DHT22;28715;51.988;6.020;2023-08-12T06:55:24;22.20;99.90
43099;DHT22;28715;51.988;6.020;2023-08-12T06:57:58;22.20;99.90
43099;DHT22;28715;51.988;6.020;2023-08-12T07:00:42;22.20;99.90
43099;DHT22;28715;51.988;6.020;2023-08-12T07:06:02;22.30;99.90
43099;DHT22;28715;51.988;6.020;2023-08-12T07:08:31;22.30;99.90
43099;DHT22;28715;51.988;6.020;2023-08-12T07:10:57;22.30;99.90
43099;DHT22;28715;51.988;6.020;2023-08-12T07:13:23;22.30;99.90
43099;DHT22;28715;51.988;6.020;2023-08-12T07:19:06;22.30;99.90
43099;DHT22;28715;51.988;6.020;2023-08-12T07:21:41;22.40;99.90
43099;DHT22;28715;51.988;6.020;2023-08-12T07:24:12;22.40;99.90
43099;DHT22;28715;51.988;6.020;2023-08-12T07:26:40;22.40;99.90
43099;DHT22;28715;51.988;6.020;2023-08-12T07:29:05;22.40;99.90
43099;DHT22;28715;51.988;6.020;2023-08-12T07:31:31;22.40;99.90
43099;DHT22;28715;51.988;6.020;2023-08-12T07:33:57;22.40;99.90
43099;DHT22;28715;51.988;6.020;2023-08-12T07:36:22;22.40;99.90
43099;DHT22;28715;51.988;6.020;2023-08-12T07:38:48;22.40;99.90
43099;DHT22;28715;51.988;6.020;2023-08-12T07:41:16;22.40;99.90
43099;DHT22;28715;51.988;6.020;2023-08-12T07:43:42;22.50;99.90
43099;DHT22;28715;51.988;6.020;2023-08-12T07:46:07;22.50;99.90
43099;DHT22;28715;51.988;6.020;2023-08-12T07:51:43;22.60;99.90
43099;DHT22;28715;51.988;6.020;2023-08-12T07:54:32;22.50;99.90
43099;DHT22;28715;51.988;6.020;2023-08-12T07:57:06;22.50;99.90
43099;DHT22;28715;51.988;6.020;2023-08-12T08:02:43;22.50;99.90
43099;DHT22;28715;51.988;6.020;2023-08-12T08:07:56;22.40;99.90
43099;DHT22;28715;51.988;6.020;2023-08-12T08:10:35;22.40;99.90
43099;DHT22;28715;51.988;6.020;2023-08-12T08:13:07;22.30;99.90
43099;DHT22;28715;51.988;6.020;2023-08-12T08:21:29;22.30;99.90
43099;DHT22;28715;51.988;6.020;2023-08-12T08:23:55;22.30;99.90
43099;DHT22;28715;51.988;6.020;2023-08-12T08:26:20;22.30;99.90
43099;DHT22;28715;51.988;6.020;2023-08-12T08:28:46;22.30;99.90
43099;DHT22;28715;51.988;6.020;2023-08-12T08:31:11;22.40;99.90
43099;DHT22;28715;51.988;6.020;2023-08-12T08:33:37;22.30;99.90
43099;DHT22;28715;51.988;6.020;2023-08-12T08:36:03;22.40;99.90
43099;DHT22;28715;51.988;6.020;2023-08-12T08:38:28;22.40;99.90
43099;DHT22;28715;51.988;6.020;2023-08-12T08:40:53;22.50;99.90
43099;DHT22;28715;51.988;6.020;2023-08-12T08:43:20;22.50;99.90
43099;DHT22;28715;51.988;6.020;2023-08-12T08:45:45;22.50;99.90
43099;DHT22;28715;51.988;6.020;2023-08-12T08:48:11;22.50;99.90
43099;DHT22;28715;51.988;6.020;2023-08-12T08:50:37;22.50;99.90
43099;DHT22;28715;51.988;6.020;2023-08-12T08:53:02;22.50;99.90
43099;DHT22;28715;51.988;6.020;2023-08-12T08:55:29;22.50;99.90
43099;DHT22;28715;51.988;6.020;2023-08-12T08:57:56;22.50;99.90
43099;DHT22;28715;51.988;6.020;2023-08-12T09:00:21;22.60;99.90
43099;DHT22;28715;51.988;6.020;2023-08-12T09:02:47;22.60;99.90
43099;DHT22;28715;51.988;6.020;2023-08-12T09:05:15;22.60;99.90
43099;DHT22;28715;51.988;6.020;2023-08-12T09:07:42;22.60;99.90
43099;DHT22;28715;51.988;6.020;2023-08-12T09:10:07;22.60;99.90
43099;DHT22;28715;51.988;6.020;2023-08-12T09:12:34;22.60;99.90
43099;DHT22;28715;51.988;6.020;2023-08-12T09:14:59;22.50;99.90
43099;DHT22;28715;51.988;6.020;2023-08-12T09:17:25;22.50;99.90
43099;DHT22;28715;51.988;6.020;2023-08-12T09:19:50;22.50;99.90
43099;DHT22;28715;51.988;6.020;2023-08-12T09:22:17;22.50;99.90
43099;DHT22;28715;51.988;6.020;2023-08-12T09:24:42;22.60;99.90
43099;DHT22;28715;51.988;6.020;2023-08-12T09:27:08;22.60;99.90
43099;DHT22;28715;51.988;6.020;2023-08-12T09:29:36;22.60;99.90
43099;DHT22;28715;51.988;6.020;2023-08-12T09:34:54;22.60;99.90
43099;DHT22;28715;51.988;6.020;2023-08-12T09:37:20;22.60;99.90
43099;DHT22;28715;51.988;6.020;2023-08-12T09:39:46;22.60;99.90
43099;DHT22;28715;51.988;6.020;2023-08-12T09:42:12;22.70;99.90
43099;DHT22;28715;51.988;6.020;2023-08-12T09:44:38;22.60;99.90
43099;DHT22;28715;51.988;6.020;2023-08-12T09:47:06;22.70;99.90
43099;DHT22;28715;51.988;6.020;2023-08-12T09:49:33;22.70;99.90
43099;DHT22;28715;51.988;6.020;2023-08-12T09:52:00;22.70;99.90
43099;DHT22;28715;51.988;6.020;2023-08-12T09:54:29;22.90;99.90
43099;DHT22;28715;51.988;6.020;2023-08-12T09:56:59;23.10;99.90
43099;DHT22;28715;51.988;6.020;2023-08-12T09:59:32;23.20;99.90
43099;DHT22;28715;51.988;6.020;2023-08-12T10:02:03;23.40;99.90
43099;DHT22;28715;51.988;6.020;2023-08-12T10:04:36;23.60;99.90
43099;DHT22;28715;51.988;6.020;2023-08-12T10:07:03;23.70;99.90
43099;DHT22;28715;51.988;6.020;2023-08-12T10:09:29;23.70;99.90
43099;DHT22;28715;51.988;6.020;2023-08-12T10:11:56;23.80;99.90
43099;DHT22;28715;51.988;6.020;2023-08-12T10:14:21;23.80;99.90
43099;DHT22;28715;51.988;6.020;2023-08-12T10:16:50;23.80;99.90
43099;DHT22;28715;51.988;6.020;2023-08-12T10:19:26;23.80;99.90
43099;DHT22;28715;51.988;6.020;2023-08-12T10:21:58;23.80;99.90
43099;DHT22;28715;51.988;6.020;2023-08-12T10:24:29;23.80;99.90
43099;DHT22;28715;51.988;6.020;2023-08-12T10:27:01;23.90;99.90
43099;DHT22;28715;51.988;6.020;2023-08-12T10:29:32;24.00;99.90
43099;DHT22;28715;51.988;6.020;2023-08-12T10:31:57;24.20;99.90
43099;DHT22;28715;51.988;6.020;2023-08-12T10:34:25;24.40;99.90
43099;DHT22;28715;51.988;6.020;2023-08-12T10:40:20;24.70;99.90
43099;DHT22;28715;51.988;6.020;2023-08-12T10:42:51;24.90;99.90
43099;DHT22;28715;51.988;6.020;2023-08-12T10:45:21;24.80;99.80
43099;DHT22;28715;51.988;6.020;2023-08-12T10:50:43;24.70;99.80
43099;DHT22;28715;51.988;6.020;2023-08-12T10:56:03;24.50;99.30
43099;DHT22;28715;51.988;6.020;2023-08-12T10:58:39;24.50;99.40
43099;DHT22;28715;51.988;6.020;2023-08-12T11:01:13;24.30;99.10
43099;DHT22;28715;51.988;6.020;2023-08-12T11:03:44;24.20;99.40
43099;DHT22;28715;51.988;6.020;2023-08-12T11:06:17;24.10;99.30
43099;DHT22;28715;51.988;6.020;2023-08-12T11:08:48;24.10;99.30
43099;DHT22;28715;51.988;6.020;2023-08-12T11:11:22;24.10;99.60
43099;DHT22;28715;51.988;6.020;2023-08-12T11:13:57;24.20;99.40
43099;DHT22;28715;51.988;6.020;2023-08-12T11:16:37;24.30;99.80
43099;DHT22;28715;51.988;6.020;2023-08-12T11:19:03;24.50;99.60
43099;DHT22;28715;51.988;6.020;2023-08-12T11:21:29;24.80;99.20
43099;DHT22;28715;51.988;6.020;2023-08-12T11:24:08;24.90;97.90
43099;DHT22;28715;51.988;6.020;2023-08-12T11:26:36;24.90;97.50
43099;DHT22;28715;51.988;6.020;2023-08-12T11:29:07;25.00;97.80
43099;DHT22;28715;51.988;6.020;2023-08-12T11:31:36;25.10;97.10
43099;DHT22;28715;51.988;6.020;2023-08-12T11:34:10;25.20;96.50
43099;DHT22;28715;51.988;6.020;2023-08-12T11:37:08;25.30;96.70
43099;DHT22;28715;51.988;6.020;2023-08-12T11:39:52;25.50;95.40
43099;DHT22;28715;51.988;6.020;2023-08-12T11:42:23;25.50;95.50
43099;DHT22;28715;51.988;6.020;2023-08-12T11:44:55;25.70;95.70
43099;DHT22;28715;51.988;6.020;2023-08-12T11:47:30;26.00;94.90
43099;DHT22;28715;51.988;6.020;2023-08-12T11:50:09;26.20;94.10
43099;DHT22;28715;51.988;6.020;2023-08-12T11:52:38;26.20;93.90
43099;DHT22;28715;51.988;6.020;2023-08-12T11:55:04;26.30;93.50
43099;DHT22;28715;51.988;6.020;2023-08-12T11:57:33;26.40;93.20
43099;DHT22;28715;51.988;6.020;2023-08-12T12:00:06;26.40;91.50
43099;DHT22;28715;51.988;6.020;2023-08-12T12:02:48;26.40;91.70
43099;DHT22;28715;51.988;6.020;2023-08-12T12:05:14;26.20;91.70
43099;DHT22;28715;51.988;6.020;2023-08-12T12:07:39;26.20;92.10
43099;DHT22;28715;51.988;6.020;2023-08-12T12:10:05;26.10;91.00
43099;DHT22;28715;51.988;6.020;2023-08-12T12:12:34;26.00;90.90
43099;DHT22;28715;51.988;6.020;2023-08-12T12:15:05;25.90;91.50
43099;DHT22;28715;51.988;6.020;2023-08-12T12:17:31;26.00;92.20
43099;DHT22;28715;51.988;6.020;2023-08-12T12:19:58;25.90;91.90
43099;DHT22;28715;51.988;6.020;2023-08-12T12:22:30;26.00;92.00
43099;DHT22;28715;51.988;6.020;2023-08-12T12:24:58;26.00;91.70
43099;DHT22;28715;51.988;6.020;2023-08-12T12:27:25;26.10;92.30
43099;DHT22;28715;51.988;6.020;2023-08-12T12:29:50;26.20;91.80
43099;DHT22;28715;51.988;6.020;2023-08-12T12:32:19;26.20;90.90
43099;DHT22;28715;51.988;6.020;2023-08-12T12:34:45;26.20;90.70
43099;DHT22;28715;51.988;6.020;2023-08-12T12:37:12;26.20;91.30
43099;DHT22;28715;51.988;6.020;2023-08-12T12:39:38;26.20;91.00
43099;DHT22;28715;51.988;6.020;2023-08-12T12:42:03;26.10;90.90
43099;DHT22;28715;51.988;6.020;2023-08-12T12:44:29;26.10;91.00
43099;DHT22;28715;51.988;6.020;2023-08-12T12:46:54;25.90;90.80
43099;DHT22;28715;51.988;6.020;2023-08-12T12:49:20;25.80;91.00
43099;DHT22;28715;51.988;6.020;2023-08-12T12:51:45;25.80;91.30
43099;DHT22;28715;51.988;6.020;2023-08-12T12:54:12;25.90;91.20
43099;DHT22;28715;51.988;6.020;2023-08-12T12:56:37;26.00;91.40
43099;DHT22;28715;51.988;6.020;2023-08-12T12:59:03;26.10;91.20
43099;DHT22;28715;51.988;6.020;2023-08-12T13:01:28;26.20;90.40
43099;DHT22;28715;51.988;6.020;2023-08-12T13:03:54;26.20;90.50
43099;DHT22;28715;51.988;6.020;2023-08-12T13:06:19;26.30;90.40
43099;DHT22;28715;51.988;6.020;2023-08-12T13:08:45;26.40;90.20
43099;DHT22;28715;51.988;6.020;2023-08-12T13:11:10;26.60;90.30
43099;DHT22;28715;51.988;6.020;2023-08-12T13:13:36;26.70;90.10
43099;DHT22;28715;51.988;6.020;2023-08-12T13:16:07;26.70;89.10
43099;DHT22;28715;51.988;6.020;2023-08-12T13:18:36;26.70;89.00
43099;DHT22;28715;51.988;6.020;2023-08-12T13:21:04;26.60;88.20
43099;DHT22;28715;51.988;6.020;2023-08-12T13:23:39;26.60;89.10
43099;DHT22;28715;51.988;6.020;2023-08-12T13:26:14;26.60;88.50
43099;DHT22;28715;51.988;6.020;2023-08-12T13:28:57;26.60;86.50
43099;DHT22;28715;51.988;6.020;2023-08-12T13:31:28;26.60;87.20
43099;DHT22;28715;51.988;6.020;2023-08-12T13:34:00;26.60;88.10
43099;DHT22;28715;51.988;6.020;2023-08-12T13:36:28;26.50;88.20
43099;DHT22;28715;51.988;6.020;2023-08-12T13:39:04;26.50;87.30
43099;DHT22;28715;51.988;6.020;2023-08-12T13:41:32;26.50;88.50
43099;DHT22;28715;51.988;6.020;2023-08-12T13:47:32;26.70;87.80
43099;DHT22;28715;51.988;6.020;2023-08-12T13:53:02;26.90;88.10
43099;DHT22;28715;51.988;6.020;2023-08-12T13:55:28;27.00;88.10
43099;DHT22;28715;51.988;6.020;2023-08-12T14:00:57;27.00;87.60
43099;DHT22;28715;51.988;6.020;2023-08-12T14:03:28;27.10;87.20
43099;DHT22;28715;51.988;6.020;2023-08-12T14:05:56;27.20;87.90
43099;DHT22;28715;51.988;6.020;2023-08-12T14:08:22;27.30;87.30
43099;DHT22;28715;51.988;6.020;2023-08-12T14:10:47;27.40;86.00
43099;DHT22;28715;51.988;6.020;2023-08-12T14:13:13;27.40;85.30
43099;DHT22;28715;51.988;6.020;2023-08-12T14:15:38;27.50;82.60
43099;DHT22;28715;51.988;6.020;2023-08-12T14:18:11;27.50;81.10
43099;DHT22;28715;51.988;6.020;2023-08-12T14:20:42;27.40;80.20
43099;DHT22;28715;51.988;6.020;2023-08-12T14:23:17;27.40;79.80
43099;DHT22;28715;51.988;6.020;2023-08-12T14:25:42;27.30;80.10
43099;DHT22;28715;51.988;6.020;2023-08-12T14:28:14;27.20;80.40
43099;DHT22;28715;51.988;6.020;2023-08-12T14:30:39;27.00;80.60
43099;DHT22;28715;51.988;6.020;2023-08-12T14:33:16;26.90;80.70
43099;DHT22;28715;51.988;6.020;2023-08-12T14:35:43;26.90;81.20
43099;DHT22;28715;51.988;6.020;2023-08-12T14:38:08;26.90;82.70
43099;DHT22;28715;51.988;6.020;2023-08-12T14:40:34;26.90;81.00
43099;DHT22;28715;51.988;6.020;2023-08-12T14:42:59;26.90;80.80
43099;DHT22;28715;51.988;6.020;2023-08-12T14:45:25;27.00;80.00
43099;DHT22;28715;51.988;6.020;2023-08-12T14:47:53;27.00;80.30
43099;DHT22;28715;51.988;6.020;2023-08-12T14:50:19;27.00;79.70
43099;DHT22;28715;51.988;6.020;2023-08-12T14:52:46;27.00;79.90
43099;DHT22;28715;51.988;6.020;2023-08-12T14:55:11;27.00;78.00
43099;DHT22;28715;51.988;6.020;2023-08-12T14:57:43;27.00;79.00
43099;DHT22;28715;51.988;6.020;2023-08-12T15:00:09;26.90;79.60
43099;DHT22;28715;51.988;6.020;2023-08-12T15:05:57;26.70;78.00
43099;DHT22;28715;51.988;6.020;2023-08-12T15:08:34;26.60;78.10
43099;DHT22;28715;51.988;6.020;2023-08-12T15:16:54;26.50;79.60
43099;DHT22;28715;51.988;6.020;2023-08-12T15:19:22;26.40;80.60
43099;DHT22;28715;51.988;6.020;2023-08-12T15:21:51;26.40;80.70
43099;DHT22;28715;51.988;6.020;2023-08-12T15:24:16;26.40;79.90
43099;DHT22;28715;51.988;6.020;2023-08-12T15:26:42;26.40;79.70
43099;DHT22;28715;51.988;6.020;2023-08-12T15:29:07;26.50;80.60
43099;DHT22;28715;51.988;6.020;2023-08-12T15:34:23;26.50;81.10
43099;DHT22;28715;51.988;6.020;2023-08-12T15:36:52;26.50;81.20
43099;DHT22;28715;51.988;6.020;2023-08-12T15:39:28;26.50;81.00
43099;DHT22;28715;51.988;6.020;2023-08-12T15:41:54;26.50;80.60
43099;DHT22;28715;51.988;6.020;2023-08-12T15:44:22;26.40;80.50
43099;DHT22;28715;51.988;6.020;2023-08-12T15:46:50;26.30;79.80
43099;DHT22;28715;51.988;6.020;2023-08-12T15:49:16;26.30;80.00
43099;DHT22;28715;51.988;6.020;2023-08-12T15:51:50;26.30;79.70
43099;DHT22;28715;51.988;6.020;2023-08-12T15:54:19;26.40;79.50
43099;DHT22;28715;51.988;6.020;2023-08-12T15:56:44;26.30;79.10
43099;DHT22;28715;51.988;6.020;2023-08-12T15:59:09;26.30;79.00
43099;DHT22;28715;51.988;6.020;2023-08-12T16:01:35;26.30;79.10
43099;DHT22;28715;51.988;6.020;2023-08-12T16:04:01;26.20;79.20
43099;DHT22;28715;51.988;6.020;2023-08-12T16:06:28;26.20;79.60
43099;DHT22;28715;51.988;6.020;2023-08-12T16:08:53;26.20;80.10
43099;DHT22;28715;51.988;6.020;2023-08-12T16:11:19;26.30;80.50
43099;DHT22;28715;51.988;6.020;2023-08-12T16:13:44;26.20;79.50
43099;DHT22;28715;51.988;6.020;2023-08-12T16:16:10;26.20;79.30
43099;DHT22;28715;51.988;6.020;2023-08-12T16:18:35;26.20;80.00
43099;DHT22;28715;51.988;6.020;2023-08-12T16:21:04;26.10;80.00
43099;DHT22;28715;51.988;6.020;2023-08-12T16:23:29;26.00;79.40
43099;DHT22;28715;51.988;6.020;2023-08-12T16:26:03;25.90;80.10
43099;DHT22;28715;51.988;6.020;2023-08-12T16:28:28;25.80;80.00